createdAt,value
2022-10-17T00:01:22.343Z,0.70
2022-10-17T00:03:50.628Z,1.00
2022-10-17T00:06:20.230Z,0.83
2022-10-17T00:08:48.517Z,0.83
2022-10-17T00:11:17.539Z,0.77
2022-10-17T00:13:45.766Z,0.87
2022-10-17T00:16:13.997Z,0.40
2022-10-17T00:18:42.266Z,0.63
2022-10-17T00:21:16.519Z,0.90
2022-10-17T00:23:46.192Z,0.97
2022-10-17T00:26:14.529Z,0.50
2022-10-17T00:28:42.804Z,0.93
2022-10-17T00:31:11.129Z,0.90
2022-10-17T00:33:39.957Z,0.87
2022-10-17T00:36:08.536Z,0.90
2022-10-17T00:38:36.792Z,0.73
2022-10-17T00:41:06.517Z,0.93
2022-10-17T00:43:49.648Z,1.07
2022-10-17T00:46:17.891Z,0.60
2022-10-17T00:48:46.129Z,0.90
2022-10-17T00:51:14.414Z,1.10
2022-10-17T00:53:42.626Z,1.00
2022-10-17T00:56:12.240Z,0.70
2022-10-17T00:58:40.498Z,0.70
2022-10-17T01:01:08.765Z,0.80
2022-10-17T01:03:37.019Z,0.70
2022-10-17T01:06:05.438Z,0.87
2022-10-17T01:08:33.724Z,1.03
2022-10-17T01:11:03.376Z,0.93
2022-10-17T01:13:35.334Z,0.80
2022-10-17T01:16:06.163Z,0.93
2022-10-17T01:18:36.820Z,0.90
2022-10-17T01:21:09.478Z,0.83
2022-10-17T01:23:56.054Z,1.10
2022-10-17T01:26:25.652Z,0.83
2022-10-17T01:29:08.383Z,1.07
2022-10-17T01:31:38.702Z,0.90
2022-10-17T01:34:07.510Z,0.93
2022-10-17T01:36:38.156Z,1.10
2022-10-17T01:39:09.622Z,1.00
2022-10-17T01:41:39.627Z,0.70
2022-10-17T01:44:10.320Z,0.90
2022-10-17T01:46:40.117Z,1.07
2022-10-17T01:49:08.766Z,1.00
2022-10-17T01:51:38.172Z,1.30
2022-10-17T01:54:08.006Z,1.33
2022-10-17T01:56:36.231Z,1.00
2022-10-17T01:59:04.990Z,1.30
2022-10-17T02:01:33.305Z,0.80
2022-10-17T02:04:02.923Z,0.80
2022-10-17T02:06:31.149Z,0.90
2022-10-17T02:08:59.459Z,0.93
2022-10-17T02:11:28.023Z,1.20
2022-10-17T02:14:00.807Z,0.63
2022-10-17T02:16:31.167Z,0.70
2022-10-17T02:19:04.101Z,0.80
2022-10-17T02:21:33.522Z,0.70
2022-10-17T02:24:02.741Z,1.00
2022-10-17T02:26:32.285Z,0.60
2022-10-17T02:29:03.451Z,0.80
2022-10-17T02:31:32.768Z,0.97
2022-10-17T02:34:01.734Z,0.93
2022-10-17T02:36:32.608Z,1.20
2022-10-17T02:39:00.915Z,1.40
2022-10-17T02:44:02.585Z,0.67
2022-10-17T02:46:30.959Z,1.17
2022-10-17T02:48:59.878Z,0.90
2022-10-17T02:51:29.931Z,1.30
2022-10-17T02:54:01.999Z,1.40
2022-10-17T02:56:30.627Z,1.27
2022-10-17T02:58:59.534Z,1.17
2022-10-17T03:01:27.821Z,1.70
2022-10-17T03:04:06.051Z,1.20
2022-10-17T03:06:34.263Z,1.23
2022-10-17T03:09:03.860Z,1.40
2022-10-17T03:11:32.128Z,1.10
2022-10-17T03:14:00.354Z,1.00
2022-10-17T03:16:28.542Z,1.27
2022-10-17T03:18:56.759Z,0.97
2022-10-17T03:21:24.967Z,1.60
2022-10-17T03:23:53.184Z,1.83
2022-10-17T03:26:22.807Z,1.40
2022-10-17T03:28:53.658Z,1.20
2022-10-17T03:31:22.831Z,1.40
2022-10-17T03:33:51.080Z,1.30
2022-10-17T03:36:19.489Z,1.37
2022-10-17T03:38:48.095Z,1.43
2022-10-17T03:41:16.309Z,1.67
2022-10-17T03:43:45.887Z,1.43
2022-10-17T03:46:14.162Z,1.60
2022-10-17T03:48:42.684Z,1.33
2022-10-17T03:51:11.209Z,1.20
2022-10-17T03:53:39.443Z,1.13
2022-10-17T03:56:11.507Z,1.47
2022-10-17T03:58:40.234Z,1.60
2022-10-17T04:01:10.474Z,1.87
2022-10-17T04:03:38.716Z,1.87
2022-10-17T04:06:07.211Z,1.40
2022-10-17T04:08:35.477Z,1.60
2022-10-17T04:11:03.923Z,1.60
2022-10-17T04:13:32.224Z,1.47
2022-10-17T04:16:00.882Z,1.37
2022-10-17T04:18:30.523Z,1.50
2022-10-17T04:20:58.747Z,1.77
2022-10-17T04:23:27.172Z,1.27
2022-10-17T04:25:57.410Z,1.20
2022-10-17T04:28:25.851Z,2.00
2022-10-17T04:30:57.845Z,0.97
2022-10-17T04:33:26.087Z,1.07
2022-10-17T04:35:59.228Z,1.37
2022-10-17T04:38:28.651Z,1.80
2022-10-17T04:40:58.749Z,1.60
2022-10-17T04:43:27.038Z,1.57
2022-10-17T04:45:55.288Z,1.13
2022-10-17T04:48:23.550Z,1.93
2022-10-17T04:50:55.192Z,1.33
2022-10-17T04:53:24.941Z,1.20
2022-10-17T04:55:53.210Z,1.63
2022-10-17T04:58:21.488Z,1.30
2022-10-17T05:00:49.773Z,1.93
2022-10-17T05:03:18.031Z,1.67
2022-10-17T05:05:46.342Z,1.67
2022-10-17T05:08:14.544Z,1.57
2022-10-17T05:10:44.643Z,1.00
2022-10-17T05:13:12.904Z,1.20
2022-10-17T05:15:41.183Z,1.17
2022-10-17T05:18:09.435Z,2.20
2022-10-17T05:20:37.711Z,1.13
2022-10-17T05:23:05.969Z,1.50
2022-10-17T05:25:34.239Z,1.10
2022-10-17T05:28:03.887Z,1.27
2022-10-17T05:30:35.218Z,1.30
2022-10-17T05:33:05.958Z,1.37
2022-10-17T05:35:34.191Z,1.20
2022-10-17T05:38:02.425Z,1.60
2022-10-17T05:40:30.731Z,1.27
2022-10-17T05:42:58.970Z,1.10
2022-10-17T05:45:28.583Z,1.27
2022-10-17T05:47:56.823Z,1.60
2022-10-17T05:50:25.294Z,1.30
2022-10-17T05:52:55.193Z,1.13
2022-10-17T05:55:23.503Z,1.07
2022-10-17T05:57:52.668Z,1.97
2022-10-17T06:00:21.021Z,1.10
2022-10-17T06:02:50.580Z,1.43
2022-10-17T06:05:18.883Z,1.47
2022-10-17T06:07:47.254Z,0.97
2022-10-17T06:10:16.523Z,1.23
2022-10-17T06:12:44.993Z,1.17
2022-10-17T06:15:13.492Z,1.10
2022-10-17T06:17:42.775Z,0.87
2022-10-17T06:20:12.770Z,1.30
2022-10-17T06:22:41.187Z,1.93
2022-10-17T06:25:09.833Z,0.97
2022-10-17T06:27:38.068Z,1.43
2022-10-17T06:30:06.903Z,1.00
2022-10-17T06:32:35.228Z,1.03
2022-10-17T06:35:03.655Z,1.87
2022-10-17T06:37:36.532Z,1.30
2022-10-17T06:40:05.586Z,0.90
2022-10-17T06:42:34.069Z,1.13
2022-10-17T06:45:02.584Z,1.33
2022-10-17T06:47:31.148Z,1.20
2022-10-17T06:49:59.768Z,1.40
2022-10-17T06:52:29.210Z,0.93
2022-10-17T06:54:58.856Z,1.90
2022-10-17T06:57:27.598Z,1.13
2022-10-17T06:59:57.559Z,1.00
2022-10-17T07:02:25.899Z,1.10
2022-10-17T07:04:54.235Z,1.30
2022-10-17T07:07:22.459Z,1.40
2022-10-17T07:09:50.712Z,1.67
2022-10-17T07:12:20.444Z,1.00
2022-10-17T07:14:50.427Z,1.17
2022-10-17T07:17:18.680Z,1.60
2022-10-17T07:19:47.295Z,1.20
2022-10-17T07:22:15.495Z,1.37
2022-10-17T07:24:43.829Z,0.97
2022-10-17T07:27:12.256Z,1.47
2022-10-17T07:29:42.022Z,1.23
2022-10-17T07:32:10.239Z,1.57
2022-10-17T07:34:38.515Z,1.10
2022-10-17T07:37:07.392Z,1.80
2022-10-17T07:39:36.439Z,1.03
2022-10-17T07:42:04.703Z,1.37
2022-10-17T07:44:32.949Z,1.53
2022-10-17T07:47:02.689Z,1.10
2022-10-17T07:49:31.163Z,1.20
2022-10-17T07:51:59.415Z,1.10
2022-10-17T07:54:27.707Z,1.30
2022-10-17T07:56:55.950Z,1.30
2022-10-17T07:59:24.368Z,1.37
2022-10-17T08:01:52.908Z,1.40
2022-10-17T08:04:23.591Z,1.20
2022-10-17T08:06:56.437Z,1.27
2022-10-17T08:09:28.952Z,1.43
2022-10-17T08:11:57.210Z,1.40
2022-10-17T08:14:25.706Z,0.97
2022-10-17T08:16:55.890Z,1.40
2022-10-17T08:19:25.560Z,1.37
2022-10-17T08:21:54.590Z,1.60
2022-10-17T08:24:22.936Z,1.13
2022-10-17T08:26:53.290Z,1.10
2022-10-17T08:29:21.720Z,1.50
2022-10-17T08:31:52.407Z,1.80
2022-10-17T08:34:26.010Z,1.13
2022-10-17T08:36:54.285Z,0.90
2022-10-17T08:39:22.632Z,1.63
2022-10-17T08:41:54.247Z,1.37
2022-10-17T08:44:27.016Z,1.33
2022-10-17T08:46:57.211Z,0.90
2022-10-17T08:49:27.967Z,1.20
2022-10-17T08:51:57.574Z,1.03
2022-10-17T08:54:27.163Z,1.10
2022-10-17T08:56:55.581Z,1.17
2022-10-17T08:59:29.381Z,1.00
2022-10-17T09:01:59.004Z,1.50
2022-10-17T09:04:36.242Z,1.50
2022-10-17T09:07:06.157Z,1.80
2022-10-17T09:09:36.395Z,1.10
2022-10-17T09:12:06.652Z,1.00
2022-10-17T09:14:58.809Z,1.33
2022-10-17T09:17:31.205Z,1.77
2022-10-17T09:20:03.035Z,1.20
2022-10-17T09:22:32.457Z,1.03
2022-10-17T09:25:03.361Z,1.90
2022-10-17T09:27:34.142Z,1.10
2022-10-17T09:30:04.197Z,1.40
2022-10-17T09:32:32.898Z,1.37
2022-10-17T09:35:02.632Z,0.97
2022-10-17T09:37:32.014Z,1.27
2022-10-17T09:40:00.245Z,1.00
2022-10-17T09:42:29.046Z,1.07
2022-10-17T09:44:58.189Z,1.30
2022-10-17T09:47:28.023Z,1.90
2022-10-17T09:49:56.292Z,1.13
2022-10-17T09:52:27.729Z,1.63
2022-10-17T09:54:57.504Z,1.60
2022-10-17T09:57:26.348Z,1.60
2022-10-17T09:59:58.862Z,0.83
2022-10-17T10:02:27.853Z,1.50
2022-10-17T10:05:04.062Z,1.37
2022-10-17T10:07:34.920Z,1.40
2022-10-17T10:10:03.651Z,1.57
2022-10-17T10:12:32.709Z,1.30
2022-10-17T10:15:01.409Z,1.37
2022-10-17T10:17:30.964Z,1.27
2022-10-17T10:19:59.238Z,1.53
2022-10-17T10:22:28.054Z,1.40
2022-10-17T10:25:10.027Z,1.40
2022-10-17T10:27:38.365Z,1.80
2022-10-17T10:30:07.074Z,1.13
2022-10-17T10:32:35.677Z,1.83
2022-10-17T10:35:04.817Z,1.27
2022-10-17T10:37:35.578Z,1.60
2022-10-17T10:40:04.201Z,1.03
2022-10-17T10:42:35.403Z,1.87
2022-10-17T10:45:04.375Z,1.57
2022-10-17T10:47:33.018Z,1.73
2022-10-17T10:50:18.126Z,2.33
2022-10-17T10:52:47.287Z,1.80
2022-10-17T10:55:22.507Z,1.90
2022-10-17T10:57:52.499Z,1.80
2022-10-17T11:00:21.681Z,1.73
2022-10-17T11:02:53.782Z,1.43
2022-10-17T11:05:23.857Z,1.47
2022-10-17T11:07:53.307Z,1.90
2022-10-17T11:10:23.591Z,1.73
2022-10-17T11:12:54.615Z,1.80
2022-10-17T11:15:23.612Z,1.37
2022-10-17T11:17:54.086Z,1.90
2022-10-17T11:20:23.701Z,1.30
2022-10-17T11:22:54.064Z,2.10
2022-10-17T11:25:24.592Z,1.80
2022-10-17T11:27:54.216Z,1.53
2022-10-17T11:30:22.431Z,1.70
2022-10-17T11:32:51.167Z,1.40
2022-10-17T11:35:20.954Z,2.10
2022-10-17T11:37:49.952Z,2.40
2022-10-17T11:40:22.037Z,1.73
2022-10-17T11:42:55.253Z,1.30
2022-10-17T11:45:24.199Z,1.60
2022-10-17T11:47:54.228Z,1.77
2022-10-17T11:53:14.064Z,1.10
2022-10-17T11:55:42.308Z,1.30
2022-10-17T11:58:21.031Z,1.70
2022-10-17T12:00:52.395Z,2.17
2022-10-17T12:03:41.911Z,1.40
2022-10-17T12:06:12.749Z,2.00
2022-10-17T12:08:42.781Z,1.93
2022-10-17T12:11:12.737Z,1.90
2022-10-17T12:13:53.005Z,1.90
2022-10-17T12:19:23.483Z,2.07
2022-10-17T12:21:59.451Z,1.40
2022-10-17T12:24:45.460Z,1.60
2022-10-17T12:27:23.178Z,1.63
2022-10-17T12:29:52.951Z,1.70
2022-10-17T12:32:21.269Z,1.60
2022-10-17T12:34:53.715Z,1.40
2022-10-17T12:37:36.821Z,2.07
2022-10-17T12:40:05.339Z,5.27
2022-10-17T12:42:50.381Z,9.67
2022-10-17T12:45:37.241Z,11.80
2022-10-17T12:48:08.306Z,10.57
2022-10-17T12:50:56.539Z,19.07
2022-10-17T12:53:26.581Z,25.23
2022-10-17T12:56:00.565Z,25.13
2022-10-17T12:58:28.789Z,19.17
2022-10-17T13:01:23.731Z,19.17
2022-10-17T13:03:47.789Z,17.47
2022-10-17T13:06:17.520Z,16.60
2022-10-17T13:08:48.862Z,15.90
2022-10-17T13:11:21.572Z,14.70
2022-10-17T13:13:50.181Z,12.63
2022-10-17T13:16:29.239Z,11.80
2022-10-17T13:18:58.888Z,12.23
2022-10-17T13:21:27.152Z,12.23
2022-10-17T13:23:55.588Z,11.47
2022-10-17T13:26:24.293Z,8.23
2022-10-17T13:29:05.613Z,8.60
2022-10-17T13:31:34.697Z,8.03
2022-10-17T13:34:04.835Z,7.13
2022-10-17T13:36:33.485Z,6.03
2022-10-17T13:39:02.118Z,5.70
2022-10-17T13:41:35.960Z,6.43
2022-10-17T13:44:05.630Z,4.73
2022-10-17T13:46:39.301Z,6.40
2022-10-17T13:49:13.958Z,4.67
2022-10-17T13:51:44.421Z,4.70
2022-10-17T13:54:28.836Z,4.43
2022-10-17T13:56:57.901Z,3.93
2022-10-17T13:59:26.904Z,3.77
2022-10-17T14:01:55.980Z,4.00
2022-10-17T14:04:25.719Z,4.10
2022-10-17T14:06:53.957Z,3.23
2022-10-17T14:09:23.460Z,3.50
2022-10-17T14:11:58.747Z,4.10
2022-10-17T14:14:27.042Z,3.20
2022-10-17T14:16:55.304Z,3.33
2022-10-17T14:19:27.394Z,2.80
2022-10-17T14:21:56.909Z,3.40
2022-10-17T14:24:29.854Z,2.67
2022-10-17T14:26:58.894Z,2.93
2022-10-17T14:29:27.639Z,2.47
2022-10-17T14:31:59.487Z,2.93
2022-10-17T14:34:30.789Z,2.07
2022-10-17T14:36:59.012Z,2.03
2022-10-17T14:39:27.522Z,2.53
2022-10-17T14:41:55.786Z,1.93
2022-10-17T14:44:25.278Z,3.03
2022-10-17T14:46:55.029Z,1.87
2022-10-17T14:49:25.400Z,2.17
2022-10-17T14:52:17.717Z,1.70
2022-10-17T14:54:47.394Z,2.37
2022-10-17T14:57:17.080Z,1.73
2022-10-17T14:59:54.313Z,2.03
2022-10-17T15:02:23.660Z,1.30
2022-10-17T15:04:51.947Z,2.03
2022-10-17T15:07:22.182Z,2.03
2022-10-17T15:09:50.961Z,1.87
2022-10-17T15:12:19.975Z,2.13
2022-10-17T15:14:48.903Z,2.70
2022-10-17T15:17:18.637Z,1.70
2022-10-17T15:19:46.902Z,1.57
2022-10-17T15:22:16.134Z,1.70
2022-10-17T15:24:46.761Z,1.53
2022-10-17T15:27:18.356Z,1.40
2022-10-17T15:29:46.917Z,1.50
2022-10-17T15:32:15.212Z,1.57
2022-10-17T15:34:43.620Z,1.43
2022-10-17T15:37:16.603Z,1.63
2022-10-17T15:39:48.040Z,1.17
2022-10-17T15:42:16.306Z,1.40
2022-10-17T15:44:45.127Z,1.67
2022-10-17T15:47:14.183Z,2.17
2022-10-17T15:49:42.572Z,2.33
2022-10-17T15:52:10.819Z,15.73
2022-10-17T15:54:39.103Z,15.90
2022-10-17T15:57:08.860Z,21.23
2022-10-17T15:59:37.146Z,14.53
2022-10-17T16:02:05.373Z,12.07
2022-10-17T16:04:33.699Z,14.67
2022-10-17T16:07:01.967Z,12.87
2022-10-17T16:09:30.225Z,11.57
2022-10-17T16:11:58.623Z,8.67
2022-10-17T16:14:28.207Z,10.57
2022-10-17T16:16:56.447Z,10.93
2022-10-17T16:19:26.487Z,9.43
2022-10-17T16:21:54.713Z,8.07
2022-10-17T16:24:23.534Z,6.33
2022-10-17T16:26:51.864Z,10.20
2022-10-17T16:29:20.119Z,9.47
2022-10-17T16:31:49.735Z,9.57
2022-10-17T16:34:18.124Z,8.97
2022-10-17T16:36:46.400Z,5.80
2022-10-17T16:39:14.726Z,4.73
2022-10-17T16:41:43.048Z,6.37
2022-10-17T16:44:14.467Z,6.03
2022-10-17T16:46:42.671Z,4.30
2022-10-17T16:49:12.919Z,4.67
2022-10-17T16:51:41.152Z,4.73
2022-10-17T16:54:10.292Z,4.37
2022-10-17T16:56:38.592Z,3.77
2022-10-17T16:59:06.810Z,4.00
2022-10-17T17:01:35.086Z,3.63
2022-10-17T17:04:04.595Z,3.10
2022-10-17T17:06:34.239Z,3.20
2022-10-17T17:09:02.541Z,2.77
2022-10-17T17:11:31.653Z,2.80
2022-10-17T17:14:01.660Z,3.30
2022-10-17T17:16:30.219Z,3.03
2022-10-17T17:18:59.013Z,2.87
2022-10-17T17:21:27.826Z,2.87
2022-10-17T17:23:58.293Z,2.07
2022-10-17T17:26:26.801Z,2.30
2022-10-17T17:28:55.194Z,1.97
2022-10-17T17:31:24.182Z,2.47
2022-10-17T17:33:52.753Z,2.10
2022-10-17T17:36:21.681Z,2.23
2022-10-17T17:38:50.114Z,1.83
2022-10-17T17:41:20.027Z,1.60
2022-10-17T17:43:48.593Z,1.93
2022-10-17T17:46:18.103Z,1.97
2022-10-17T17:48:46.736Z,1.87
2022-10-17T17:51:16.128Z,1.63
2022-10-17T17:53:44.553Z,1.80
2022-10-17T17:56:14.129Z,1.60
2022-10-17T17:58:45.736Z,2.17
2022-10-17T18:01:17.720Z,1.90
2022-10-17T18:03:46.181Z,1.83
2022-10-17T18:06:14.447Z,1.90
2022-10-17T18:08:45.044Z,1.43
2022-10-17T18:11:15.968Z,1.90
2022-10-17T18:13:48.025Z,1.90
2022-10-17T18:16:17.093Z,1.97
2022-10-17T18:18:45.731Z,1.23
2022-10-17T18:21:14.369Z,1.33
2022-10-17T18:23:42.872Z,1.93
2022-10-17T18:26:11.177Z,1.20
2022-10-17T18:31:15.388Z,2.20
2022-10-17T18:33:44.650Z,0.90
2022-10-17T18:36:13.438Z,1.63
2022-10-17T18:38:41.821Z,1.20
2022-10-17T18:41:11.149Z,1.67
2022-10-17T18:43:39.843Z,1.60
2022-10-17T18:46:12.341Z,0.90
2022-10-17T18:48:45.347Z,1.30
2022-10-17T18:51:13.813Z,1.00
2022-10-17T18:53:42.264Z,1.10
2022-10-17T18:56:10.778Z,1.50
2022-10-17T18:58:39.132Z,1.50
2022-10-17T19:01:07.998Z,1.50
2022-10-17T19:03:36.301Z,1.23
2022-10-17T19:06:07.339Z,0.90
2022-10-17T19:08:35.587Z,1.13
2022-10-17T19:11:06.486Z,0.93
2022-10-17T19:13:34.921Z,1.17
2022-10-17T19:16:06.192Z,0.87
2022-10-17T19:18:34.521Z,0.80
2022-10-17T19:21:03.390Z,0.60
2022-10-17T19:23:35.386Z,0.90
2022-10-17T19:26:04.137Z,1.13
2022-10-17T19:28:32.470Z,1.00
2022-10-17T19:31:00.775Z,0.70
2022-10-17T19:36:03.120Z,0.80
2022-10-17T19:38:32.839Z,1.27
2022-10-17T19:41:01.119Z,1.00
2022-10-17T19:43:29.382Z,0.60
2022-10-17T19:45:58.479Z,1.10
2022-10-17T19:48:27.748Z,1.23
2022-10-17T19:50:56.149Z,0.93
2022-10-17T19:53:24.734Z,0.97
2022-10-17T19:55:54.327Z,0.70
2022-10-17T19:58:22.602Z,1.10
2022-10-17T20:00:51.352Z,1.13
2022-10-17T20:03:19.704Z,0.97
2022-10-17T20:05:47.958Z,0.70
2022-10-17T20:08:16.329Z,0.80
2022-10-17T20:10:44.678Z,0.60
2022-10-17T20:13:14.433Z,1.27
2022-10-17T20:15:42.789Z,1.00
2022-10-17T20:18:11.142Z,0.90
2022-10-17T20:20:39.570Z,1.40
2022-10-17T20:23:07.830Z,1.20
2022-10-17T20:25:38.156Z,1.20
2022-10-17T20:28:06.445Z,0.77
2022-10-17T20:30:36.095Z,1.00
2022-10-17T20:33:04.394Z,1.00
2022-10-17T20:35:32.840Z,0.70
2022-10-17T20:38:01.174Z,0.90
2022-10-17T20:40:35.217Z,1.10
2022-10-17T20:43:04.155Z,1.30
2022-10-17T20:45:44.257Z,0.83
2022-10-17T20:48:21.381Z,0.83
2022-10-17T20:50:49.661Z,0.87
2022-10-17T20:53:36.006Z,0.80
2022-10-17T20:56:05.455Z,1.00
2022-10-17T20:58:33.721Z,1.10
2022-10-17T21:01:06.215Z,0.90
2022-10-17T21:03:39.761Z,1.20
2022-10-17T21:06:10.918Z,1.30
2022-10-17T21:08:39.261Z,0.90
2022-10-17T21:11:11.433Z,0.80
2022-10-17T21:13:39.778Z,0.80
2022-10-17T21:16:08.752Z,0.90
2022-10-17T21:18:38.591Z,0.90
2022-10-17T21:21:10.714Z,1.07
2022-10-17T21:23:39.586Z,1.30
2022-10-17T21:26:09.403Z,0.87
2022-10-17T21:28:38.444Z,1.50
2022-10-17T21:31:10.912Z,19.20
2022-10-17T21:33:40.570Z,20.13
2022-10-17T21:36:09.239Z,18.83
2022-10-17T21:38:37.967Z,21.83
2022-10-17T21:41:06.558Z,25.90
2022-10-17T21:43:34.851Z,26.47
2022-10-17T21:46:03.924Z,26.90
2022-10-17T21:48:32.220Z,25.77
2022-10-17T21:51:02.291Z,22.17
2022-10-17T21:53:30.777Z,22.17
2022-10-17T21:56:00.626Z,21.10
2022-10-17T21:58:29.035Z,22.00
2022-10-17T22:01:04.179Z,19.63
2022-10-17T22:03:33.657Z,21.37
2022-10-17T22:06:12.736Z,20.70
2022-10-17T22:08:46.894Z,18.13
2022-10-17T22:11:15.927Z,19.70
2022-10-17T22:13:44.162Z,17.77
2022-10-17T22:16:12.927Z,15.27
2022-10-17T22:18:41.244Z,15.10
2022-10-17T22:21:11.578Z,15.90
2022-10-17T22:23:39.846Z,16.07
2022-10-17T22:26:08.297Z,16.13
2022-10-17T22:28:36.765Z,15.40
2022-10-17T22:31:05.051Z,14.83
2022-10-17T22:33:33.715Z,13.60
2022-10-17T22:36:02.048Z,13.00
2022-10-17T22:38:31.731Z,11.17
2022-10-17T22:41:00.023Z,13.63
2022-10-17T22:43:28.324Z,12.97
2022-10-17T22:45:56.934Z,11.93
2022-10-17T22:48:25.240Z,11.13
2022-10-17T22:50:53.561Z,10.77
2022-10-17T22:53:24.939Z,9.43
2022-10-17T22:55:54.771Z,9.47
2022-10-17T22:58:22.998Z,9.53
2022-10-17T23:00:51.253Z,8.00
2022-10-17T23:03:19.626Z,10.17
2022-10-17T23:05:47.841Z,8.30
2022-10-17T23:08:17.808Z,8.23
2022-10-17T23:10:46.065Z,7.20
2022-10-17T23:13:15.824Z,7.20
2022-10-17T23:15:44.133Z,6.83
2022-10-17T23:18:12.386Z,6.47
2022-10-17T23:20:40.646Z,6.97
2022-10-17T23:23:08.923Z,5.93
2022-10-17T23:25:37.219Z,5.63
2022-10-17T23:28:07.353Z,5.23
2022-10-17T23:30:36.973Z,5.37
2022-10-17T23:33:05.482Z,6.40
2022-10-17T23:35:33.744Z,4.93
2022-10-17T23:38:02.421Z,5.87
2022-10-17T23:40:30.660Z,4.50
2022-10-17T23:42:58.915Z,5.10
2022-10-17T23:45:27.242Z,4.40
2022-10-17T23:47:57.190Z,4.23
2022-10-17T23:50:27.872Z,4.00
2022-10-17T23:52:56.122Z,3.57
2022-10-17T23:55:24.457Z,3.33
2022-10-17T23:57:53.113Z,4.10
